• Join FlightAware (Why Join?)
  • Login
  • US Flag 
02:19PM EDT


 

Airport Tracker/Info


-or-


 

Live Flight TrackerFlight Track Log ✈ N301HC ✈ 08-May-2013 ✈ KRNO - KLAS

Flight Track Log - Related Links

Times and Time Zones

All times are in EDT time to prevent confusion due to time zone crossing. See the N301HC flight status page for this flight to view local times or setup timezone preferences in your user account.

Time Position Orientation Groundspeed Altitude Reporting Facility
EDT Latitude Longitude Course Direction KTS MPH feet Rate Location/Type
02:34AM 39.4833 -119.7667 132° Southeast 1 1 5,200  Level Northern Cal TRACON
02:35AM 39.5500 -119.7500 11° North 149 171 6,300 1,140 Climbing Northern Cal TRACON
02:36AM 39.5833 -119.7333 21° North 174 200 7,400 1,500 Climbing Northern Cal TRACON
02:38AM 39.5700 -119.6617 104° East 189 217 10,800 1,620 Climbing Oakland Center
02:39AM 39.2412 -119.3953 132° Southeast  Level Estimated
02:39AM 39.5239 -119.6322 154° Southeast 195 224 12,300  Level Oakland Center
02:40AM 39.4886 -119.5839 133° Southeast 188 216 13,900 1,560 Climbing Oakland Center
02:41AM 39.4528 -119.5383 136° Southeast 184 212 15,500 1,440 Climbing Oakland Center
02:42AM 39.4175 -119.4947 136° Southeast 177 204 16,900 1,260 Climbing Oakland Center
02:43AM 39.3806 -119.4544 140° Southeast 175 201 18,100 1,200 Climbing Oakland Center
02:44AM 39.3433 -119.4119 139° Southeast 178 205 19,400 1,140 Climbing Oakland Center
02:45AM 39.3036 -119.3678 139° Southeast 185 213 20,400 1,140 Climbing Oakland Center
02:46AM 39.2622 -119.3222 140° Southeast 194 223 21,700 1,200 Climbing Oakland Center
02:47AM 39.2211 -119.2778 140° Southeast 193 222 22,900 1,140 Climbing Oakland Center
02:48AM 39.1814 -119.2353 140° Southeast 188 216 24,100 960 Climbing Oakland Center
02:49AM 39.1431 -119.1933 140° Southeast 183 211 24,900 420 Climbing Oakland Center
02:50AM 39.0883 -119.1344 140° Southeast 215 247 25,000  Climbing Oakland Center
02:51AM 39.0364 -119.0781 140° Southeast 240 276 25,000  Level Oakland Center
02:52AM 38.9844 -119.0206 139° Southeast 247 284 25,000  Level Oakland Center
02:53AM 38.9322 -118.9642 140° Southeast 247 284 25,000  Level Oakland Center
02:54AM 38.8806 -118.9100 141° Southeast 242 278 25,000  Level Oakland Center
02:55AM 38.8289 -118.8525 139° Southeast 247 284 25,000  Level Oakland Center
02:56AM 38.7772 -118.7972 140° Southeast 245 282 25,000  Level Oakland Center
02:57AM 38.7256 -118.7414 140° Southeast 245 282 25,000  Level Oakland Center
02:58AM 38.6722 -118.6856 141° Southeast 248 285 25,000  Level Oakland Center
02:59AM 38.6206 -118.6275 139° Southeast 249 287 25,000  Level Oakland Center
03:00AM 38.5672 -118.5719 141° Southeast 247 284 25,000  Level Oakland Center
03:01AM 38.5161 -118.5169 140° Southeast 243 280 25,000  Level Oakland Center
03:02AM 38.4633 -118.4619 141° Southeast 244 281 25,000  Level Oakland Center
03:03AM 38.4114 -118.4061 140° Southeast 245 282 25,000  Level Oakland Center
03:04AM 38.3600 -118.3519 140° Southeast 242 278 25,000  Level Oakland Center
03:05AM 38.3078 -118.2953 140° Southeast 246 283 25,000  Level Oakland Center
03:06AM 38.2550 -118.2403 141° Southeast 246 283 25,000  Level Oakland Center
03:07AM 38.2036 -118.1861 140° Southeast 242 278 25,000  Level Oakland Center
03:08AM 38.1508 -118.1325 141° Southeast 243 280 25,000  Level Oakland Center
03:09AM 38.0931 -118.0703 140° Southeast 239 275 25,000  Level Oakland Center
03:10AM 38.0403 -118.0150 140° Southeast 244 281 25,000  Level Oakland Center
03:11AM 37.9883 -117.9606 140° Southeast 244 281 25,000  Level Oakland Center
03:12AM 37.9364 -117.9061 140° Southeast 245 282 25,000  Level Oakland Center
03:13AM 37.8833 -117.8511 141° Southeast 247 284 25,000  Level Oakland Center
03:14AM 37.8314 -117.7969 141° Southeast 244 281 25,000  Level Oakland Center
03:15AM 37.7792 -117.7419 140° Southeast 245 282 25,000  Level Oakland Center
03:16AM 37.7267 -117.6892 142° Southeast 244 281 25,000  Level Oakland Center
03:17AM 37.6739 -117.6333 140° Southeast 247 284 25,000  Level Oakland Center
03:18AM 37.6197 -117.5792 142° Southeast 248 285 25,000  Level Oakland Center
03:19AM 37.5675 -117.5242 140° Southeast 247 284 25,000  Level Oakland Center
03:20AM 37.5147 -117.4694 141° Southeast 247 284 25,000  Level Oakland Center
03:21AM 37.4619 -117.4158 141° Southeast 245 282 25,000  Level Oakland Center
03:22AM 37.4086 -117.3625 142° Southeast 246 283 25,000  Level Oakland Center
03:23AM 37.3561 -117.3097 141° Southeast 244 281 25,000  Level Oakland Center
03:24AM 37.3044 -117.2558 140° Southeast 242 278 25,000  Level Oakland Center
03:25AM 37.2506 -117.2011 141° Southeast 245 282 25,000  Level Oakland Center
03:26AM 37.1969 -117.1458 141° Southeast 247 284 25,000  Level Oakland Center
03:27AM 37.1419 -117.0917 142° Southeast 249 287 25,000 -240 Level Oakland Center
03:28AM 37.0881 -117.0372 141° Southeast 249 287 24,600 -780 Descending Oakland Center
03:29AM 37.0292 -116.9789 142° Southeast 257 296 23,500 -1,140 Descending Oakland Center
03:30AM 36.9669 -116.9164 141° Southeast 272 313 22,400 -1,140 Descending Oakland Center
03:31AM 36.8900 -116.8378 141° Southeast 291 335 21,100 -660 Descending Los Angeles Center
03:33AM 36.8294 -116.7750 140° Southeast 283 326 21,000 -60 Descending Los Angeles Center
03:34AM 36.7758 -116.7131 137° Southeast 264 304 21,000  Level Los Angeles Center
03:35AM 36.7294 -116.6436 130° Southeast 259 298 21,000  Level Los Angeles Center
03:36AM 36.6814 -116.5767 132° Southeast 259 298 21,000  Level Los Angeles Center
03:37AM 36.6356 -116.5111 131° Southeast 253 291 21,000  Level Los Angeles Center
03:38AM 36.5889 -116.4444 131° Southeast 254 292 21,000  Level Los Angeles Center
03:39AM 36.5414 -116.3775 131° Southeast 255 293 21,000 -60 Level Los Angeles Center
03:40AM 36.4931 -116.3094 131° Southeast 254 292 20,900 -600 Descending Los Angeles Center
03:41AM 36.4436 -116.2394 131° Southeast 266 306 19,800 -1,140 Descending Los Angeles Center
03:42AM 36.3917 -116.1681 132° Southeast 282 325 18,700 -1,440 Descending Los Angeles Center
03:42AM 36.3481 -116.1081 132° Southeast 287 330 17,400 -1,860 Descending Los Angeles Center
03:43AM 36.2911 -116.0222 129° Southeast 306 352 15,600 -1,560 Descending Los Angeles Center
03:44AM 36.2619 -115.9886 137° Southeast 300 345 15,100 -840 Descending Los Angeles Center
03:44AM 36.2408 -115.9606 133° Southeast 298 343 14,900 -180 Descending Los Angeles Center
03:45AM 36.1903 -115.8839 129° Southeast 271 312 14,900 -600 Level Los Angeles Center
03:46AM 36.1619 -115.8000 113° Southeast 275 316 13,800 -1,200 Descending Los Angeles Center
03:47AM 36.1286 -115.7147 116° Southeast 277 319 12,600 -1,200 Descending Los Angeles Center
03:48AM 36.0986 -115.6236 112° Southeast 274 315 11,400 -1,140 Descending Los Angeles Center
03:49AM 36.1097 -115.5347 81° East 263 303 10,300 -960 Descending Los Angeles Center
03:50AM 36.1219 -115.4511 80° East 252 290 9,500 -900 Descending Los Angeles Center
03:51AM 36.1372 -115.3717 77° East 237 273 8,500 -1,260 Descending Los Angeles Center
03:52AM 36.1469 -115.2967 81° East 214 246 7,000 -1,440 Descending Los Angeles Center
03:53AM 36.1558 -115.2272 81° East 195 224 5,600 -1,620 Descending Los Angeles Center
03:54AM 36.1622 -115.1664 83° East 173 199 3,800 -1,380 Descending Los Angeles Center
03:55AM 36.1358 -115.1353 136° Southeast 155 178 2,900 -780 Descending Los Angeles Center
03:56AM 36.1031 -115.1536 204° Southwest 153 176 2,200 -660 Descending Los Angeles Center
03:58AM 36.0801 -115.1523 284° West  Level Estimated
04:05AM 36.0801 -115.1523 284° West  Level Estimated